sensor_id;sensor_type;location;lat;lon;timestamp;temperature;humidity
52439;DHT22;38359;53.150;6.504;2023-05-10T00:09:01;14.20;99.90
52439;DHT22;38359;53.150;6.504;2023-05-10T00:19:28;14.20;99.90
52439;DHT22;38359;53.150;6.504;2023-05-10T00:29:54;14.60;99.90
52439;DHT22;38359;53.150;6.504;2023-05-10T00:40:19;14.10;99.90
52439;DHT22;38359;53.150;6.504;2023-05-10T00:50:46;14.20;99.90
52439;DHT22;38359;53.150;6.504;2023-05-10T01:01:12;13.90;99.90
52439;DHT22;38359;53.150;6.504;2023-05-10T01:11:39;13.90;99.90
52439;DHT22;38359;53.150;6.504;2023-05-10T01:44:46;13.90;99.90
52439;DHT22;38359;53.150;6.504;2023-05-10T01:55:20;13.80;99.90
52439;DHT22;38359;53.150;6.504;2023-05-10T02:05:48;13.80;99.90
52439;DHT22;38359;53.150;6.504;2023-05-10T02:16:16;13.90;99.90
52439;DHT22;38359;53.150;6.504;2023-05-10T02:26:44;13.90;99.90
52439;DHT22;38359;53.150;6.504;2023-05-10T02:37:13;13.80;99.90
52439;DHT22;38359;53.150;6.504;2023-05-10T02:47:40;13.80;99.90
52439;DHT22;38359;53.150;6.504;2023-05-10T02:58:06;13.90;99.90
52439;DHT22;38359;53.150;6.504;2023-05-10T03:08:32;14.00;99.90
52439;DHT22;38359;53.150;6.504;2023-05-10T03:19:22;14.00;99.90
52439;DHT22;38359;53.150;6.504;2023-05-10T03:30:05;13.60;99.90
52439;DHT22;38359;53.150;6.504;2023-05-10T03:40:31;13.80;99.90
52439;DHT22;38359;53.150;6.504;2023-05-10T03:50:57;13.80;99.90
52439;DHT22;38359;53.150;6.504;2023-05-10T04:01:23;13.90;99.90
52439;DHT22;38359;53.150;6.504;2023-05-10T04:11:49;13.80;99.90
52439;DHT22;38359;53.150;6.504;2023-05-10T04:22:15;13.70;99.90
52439;DHT22;38359;53.150;6.504;2023-05-10T04:32:41;13.70;99.90
52439;DHT22;38359;53.150;6.504;2023-05-10T04:43:07;13.60;99.90
52439;DHT22;38359;53.150;6.504;2023-05-10T04:53:32;13.60;99.90
52439;DHT22;38359;53.150;6.504;2023-05-10T05:03:58;13.60;99.90
52439;DHT22;38359;53.150;6.504;2023-05-10T05:14:24;13.60;99.90
52439;DHT22;38359;53.150;6.504;2023-05-10T05:24:50;13.50;99.90
52439;DHT22;38359;53.150;6.504;2023-05-10T05:35:16;13.50;99.90
52439;DHT22;38359;53.150;6.504;2023-05-10T05:45:42;13.60;99.90
52439;DHT22;38359;53.150;6.504;2023-05-10T05:56:07;13.80;99.90
52439;DHT22;38359;53.150;6.504;2023-05-10T06:06:34;13.80;99.90
52439;DHT22;38359;53.150;6.504;2023-05-10T06:17:00;13.70;99.90
52439;DHT22;38359;53.150;6.504;2023-05-10T06:27:29;13.90;99.90
52439;DHT22;38359;53.150;6.504;2023-05-10T06:37:55;14.00;99.90
52439;DHT22;38359;53.150;6.504;2023-05-10T06:48:20;13.70;99.90
52439;DHT22;38359;53.150;6.504;2023-05-10T06:58:47;13.60;99.90
52439;DHT22;38359;53.150;6.504;2023-05-10T07:09:13;13.50;99.90
52439;DHT22;38359;53.150;6.504;2023-05-10T07:19:40;13.80;99.90
52439;DHT22;38359;53.150;6.504;2023-05-10T07:30:06;13.70;99.90
52439;DHT22;38359;53.150;6.504;2023-05-10T07:40:32;13.70;99.90
52439;DHT22;38359;53.150;6.504;2023-05-10T07:50:58;13.90;99.90
52439;DHT22;38359;53.150;6.504;2023-05-10T08:01:24;14.00;99.90
52439;DHT22;38359;53.150;6.504;2023-05-10T08:11:50;13.60;99.90
52439;DHT22;38359;53.150;6.504;2023-05-10T08:22:16;13.80;99.90
52439;DHT22;38359;53.150;6.504;2023-05-10T08:32:42;14.00;99.90
52439;DHT22;38359;53.150;6.504;2023-05-10T08:43:10;14.30;99.90
52439;DHT22;38359;53.150;6.504;2023-05-10T08:53:37;14.10;99.90
52439;DHT22;38359;53.150;6.504;2023-05-10T09:04:03;14.20;99.90
52439;DHT22;38359;53.150;6.504;2023-05-10T09:14:30;14.40;99.90
52439;DHT22;38359;53.150;6.504;2023-05-10T09:25:12;14.40;99.90
52439;DHT22;38359;53.150;6.504;2023-05-10T09:35:39;14.50;99.90
52439;DHT22;38359;53.150;6.504;2023-05-10T09:46:09;14.40;99.90
52439;DHT22;38359;53.150;6.504;2023-05-10T09:56:36;14.60;99.90
52439;DHT22;38359;53.150;6.504;2023-05-10T10:07:05;14.40;99.90
52439;DHT22;38359;53.150;6.504;2023-05-10T10:17:31;14.90;99.90
52439;DHT22;38359;53.150;6.504;2023-05-10T10:28:14;14.90;99.90
52439;DHT22;38359;53.150;6.504;2023-05-10T10:49:14;14.50;99.90
52439;DHT22;38359;53.150;6.504;2023-05-10T10:59:43;15.20;99.90
52439;DHT22;38359;53.150;6.504;2023-05-10T11:10:10;15.30;99.90
52439;DHT22;38359;53.150;6.504;2023-05-10T11:20:39;14.90;99.90
52439;DHT22;38359;53.150;6.504;2023-05-10T11:31:05;15.00;99.90
52439;DHT22;38359;53.150;6.504;2023-05-10T11:41:31;15.10;99.90
52439;DHT22;38359;53.150;6.504;2023-05-10T11:52:04;14.70;99.90
52439;DHT22;38359;53.150;6.504;2023-05-10T12:02:31;14.70;99.90
52439;DHT22;38359;53.150;6.504;2023-05-10T12:12:57;14.90;99.90
52439;DHT22;38359;53.150;6.504;2023-05-10T12:23:23;15.10;99.90
52439;DHT22;38359;53.150;6.504;2023-05-10T12:33:49;15.60;99.90
52439;DHT22;38359;53.150;6.504;2023-05-10T12:44:14;15.20;99.90
52439;DHT22;38359;53.150;6.504;2023-05-10T12:54:40;15.00;99.90
52439;DHT22;38359;53.150;6.504;2023-05-10T13:05:06;15.20;99.90
52439;DHT22;38359;53.150;6.504;2023-05-10T13:15:32;15.40;99.90
52439;DHT22;38359;53.150;6.504;2023-05-10T13:25:58;15.20;99.90
52439;DHT22;38359;53.150;6.504;2023-05-10T13:36:24;15.60;99.90
52439;DHT22;38359;53.150;6.504;2023-05-10T13:46:51;15.60;99.90
52439;DHT22;38359;53.150;6.504;2023-05-10T13:57:16;15.70;99.90
52439;DHT22;38359;53.150;6.504;2023-05-10T14:07:42;15.70;99.90
52439;DHT22;38359;53.150;6.504;2023-05-10T14:18:08;15.90;99.90
52439;DHT22;38359;53.150;6.504;2023-05-10T14:28:34;16.40;99.90
52439;DHT22;38359;53.150;6.504;2023-05-10T14:38:59;16.20;99.90
52439;DHT22;38359;53.150;6.504;2023-05-10T14:49:25;16.30;99.90
52439;DHT22;38359;53.150;6.504;2023-05-10T14:59:51;16.10;99.90
52439;DHT22;38359;53.150;6.504;2023-05-10T15:10:18;16.30;99.90
52439;DHT22;38359;53.150;6.504;2023-05-10T15:20:43;16.20;99.90
52439;DHT22;38359;53.150;6.504;2023-05-10T15:31:09;16.30;99.90
52439;DHT22;38359;53.150;6.504;2023-05-10T15:41:35;16.00;99.90
52439;DHT22;38359;53.150;6.504;2023-05-10T15:52:01;15.80;99.90
52439;DHT22;38359;53.150;6.504;2023-05-10T16:02:27;15.80;99.90
52439;DHT22;38359;53.150;6.504;2023-05-10T16:12:53;15.60;99.90
52439;DHT22;38359;53.150;6.504;2023-05-10T16:23:20;15.90;99.90
52439;DHT22;38359;53.150;6.504;2023-05-10T16:33:46;15.80;99.90
52439;DHT22;38359;53.150;6.504;2023-05-10T16:44:11;15.70;99.90
52439;DHT22;38359;53.150;6.504;2023-05-10T16:54:37;15.50;99.90
52439;DHT22;38359;53.150;6.504;2023-05-10T17:05:03;15.50;99.90
52439;DHT22;38359;53.150;6.504;2023-05-10T17:15:29;15.70;99.90
52439;DHT22;38359;53.150;6.504;2023-05-10T17:25:55;15.40;99.90
52439;DHT22;38359;53.150;6.504;2023-05-10T17:36:21;15.40;99.90
52439;DHT22;38359;53.150;6.504;2023-05-10T17:46:47;15.40;99.90
52439;DHT22;38359;53.150;6.504;2023-05-10T17:57:13;15.10;99.90
52439;DHT22;38359;53.150;6.504;2023-05-10T18:07:38;15.10;99.90
52439;DHT22;38359;53.150;6.504;2023-05-10T18:18:04;15.10;99.90
52439;DHT22;38359;53.150;6.504;2023-05-10T18:28:30;15.30;99.90
52439;DHT22;38359;53.150;6.504;2023-05-10T18:38:56;15.00;99.90
52439;DHT22;38359;53.150;6.504;2023-05-10T18:49:22;14.70;99.90
52439;DHT22;38359;53.150;6.504;2023-05-10T18:59:48;14.90;99.90
52439;DHT22;38359;53.150;6.504;2023-05-10T19:10:14;14.70;99.90
52439;DHT22;38359;53.150;6.504;2023-05-10T19:20:39;14.50;99.90
52439;DHT22;38359;53.150;6.504;2023-05-10T19:31:06;14.50;99.90
52439;DHT22;38359;53.150;6.504;2023-05-10T19:41:32;14.50;99.90
52439;DHT22;38359;53.150;6.504;2023-05-10T19:51:58;14.10;99.90
52439;DHT22;38359;53.150;6.504;2023-05-10T20:02:23;14.10;99.90
52439;DHT22;38359;53.150;6.504;2023-05-10T20:12:50;14.20;99.90
52439;DHT22;38359;53.150;6.504;2023-05-10T20:23:16;13.80;99.90
52439;DHT22;38359;53.150;6.504;2023-05-10T20:33:42;13.70;99.90
52439;DHT22;38359;53.150;6.504;2023-05-10T20:44:08;13.70;99.90
52439;DHT22;38359;53.150;6.504;2023-05-10T20:54:35;13.60;99.90
52439;DHT22;38359;53.150;6.504;2023-05-10T21:05:00;13.70;99.90
52439;DHT22;38359;53.150;6.504;2023-05-10T21:15:26;13.60;99.90
52439;DHT22;38359;53.150;6.504;2023-05-10T21:25:52;13.50;99.90
52439;DHT22;38359;53.150;6.504;2023-05-10T21:36:18;13.30;99.90
52439;DHT22;38359;53.150;6.504;2023-05-10T21:46:44;13.40;99.90
52439;DHT22;38359;53.150;6.504;2023-05-10T21:57:09;13.30;99.90
52439;DHT22;38359;53.150;6.504;2023-05-10T22:07:35;13.10;99.90
52439;DHT22;38359;53.150;6.504;2023-05-10T22:18:01;13.00;99.90
52439;DHT22;38359;53.150;6.504;2023-05-10T22:28:27;12.90;99.90
52439;DHT22;38359;53.150;6.504;2023-05-10T22:38:53;12.80;99.90
52439;DHT22;38359;53.150;6.504;2023-05-10T22:49:19;12.90;99.90
52439;DHT22;38359;53.150;6.504;2023-05-10T22:59:46;13.10;99.90
52439;DHT22;38359;53.150;6.504;2023-05-10T23:10:12;13.20;99.90
52439;DHT22;38359;53.150;6.504;2023-05-10T23:20:40;13.10;99.90
52439;DHT22;38359;53.150;6.504;2023-05-10T23:31:07;13.10;99.90
52439;DHT22;38359;53.150;6.504;2023-05-10T23:41:33;13.00;99.90
52439;DHT22;38359;53.150;6.504;2023-05-10T23:51:59;13.10;99.90
